createdAt,value
2018-02-20T00:00:52.893Z,56.40
2018-02-20T00:03:21.976Z,55.45
2018-02-20T00:05:50.595Z,50.20
2018-02-20T00:08:19.044Z,52.20
2018-02-20T00:10:47.402Z,50.22
2018-02-20T00:13:15.731Z,60.72
2018-02-20T00:15:44.063Z,55.20
2018-02-20T00:18:12.399Z,60.85
2018-02-20T00:20:40.731Z,56.55
2018-02-20T00:23:09.118Z,59.58
2018-02-20T00:25:38.118Z,53.60
2018-02-20T00:28:06.630Z,55.92
2018-02-20T00:30:35.808Z,62.83
2018-02-20T00:33:05.204Z,58.42
2018-02-20T00:35:33.650Z,58.80
2018-02-20T00:38:02.230Z,50.22
2018-02-20T00:40:30.840Z,54.75
2018-02-20T00:42:59.428Z,55.03
2018-02-20T00:45:28.755Z,51.53
2018-02-20T00:47:57.582Z,63.13
2018-02-20T00:50:26.033Z,57.65
2018-02-20T00:52:54.330Z,53.58
2018-02-20T00:55:22.662Z,53.38
2018-02-20T00:57:51.057Z,50.00
2018-02-20T01:00:19.824Z,55.72
2018-02-20T01:02:48.175Z,54.00
2018-02-20T01:05:16.492Z,55.97
2018-02-20T01:07:44.818Z,54.53
2018-02-20T01:10:13.158Z,47.22
2018-02-20T01:12:41.505Z,52.88
2018-02-20T01:15:09.906Z,52.00
2018-02-20T01:17:39.029Z,52.22
2018-02-20T01:20:08.247Z,52.88
2018-02-20T01:22:36.670Z,49.45
2018-02-20T01:25:05.026Z,50.25
2018-02-20T01:27:33.429Z,41.30
2018-02-20T01:30:02.072Z,57.97
2018-02-20T01:32:30.831Z,52.10
2018-02-20T01:34:59.435Z,56.70
2018-02-20T01:37:27.806Z,49.70
2018-02-20T01:39:56.137Z,58.70
2018-02-20T01:42:25.267Z,52.05
2018-02-20T01:44:54.346Z,57.83
2018-02-20T01:47:22.723Z,53.28
2018-02-20T01:49:51.322Z,46.92
2018-02-20T01:52:20.155Z,50.85
2018-02-20T01:54:48.521Z,62.20
2018-02-20T01:57:16.839Z,59.30
2018-02-20T01:59:45.139Z,58.20
2018-02-20T02:02:13.474Z,58.25
2018-02-20T02:04:41.807Z,55.55
2018-02-20T02:07:10.138Z,54.90
2018-02-20T02:09:38.911Z,55.40
2018-02-20T02:12:07.310Z,60.08
2018-02-20T02:14:35.878Z,65.00
2018-02-20T02:17:04.515Z,63.78
2018-02-20T02:19:33.236Z,68.97
2018-02-20T02:22:01.810Z,57.42
2018-02-20T02:24:30.383Z,73.78
2018-02-20T02:26:58.751Z,55.65
2018-02-20T02:29:27.079Z,60.15
2018-02-20T02:31:56.146Z,72.65
2018-02-20T02:34:24.451Z,66.45
2018-02-20T02:36:52.849Z,61.60
2018-02-20T02:39:21.419Z,63.47
2018-02-20T02:41:50.575Z,60.67
2018-02-20T02:44:19.067Z,65.75
2018-02-20T02:46:47.422Z,62.03
2018-02-20T02:49:16.668Z,62.92
2018-02-20T02:51:45.009Z,64.53
2018-02-20T02:54:13.344Z,63.50
2018-02-20T02:56:41.683Z,60.08
2018-02-20T02:59:10.874Z,67.60
2018-02-20T03:01:39.392Z,68.55
2018-02-20T03:04:08.563Z,71.95
2018-02-20T03:06:36.931Z,59.92
2018-02-20T03:09:06.127Z,69.47
2018-02-20T03:11:34.721Z,61.72
2018-02-20T03:14:03.659Z,70.65
2018-02-20T03:16:32.458Z,51.58
2018-02-20T03:19:01.236Z,56.60
2018-02-20T03:21:29.905Z,49.15
2018-02-20T03:23:59.280Z,58.45
2018-02-20T03:26:28.047Z,58.05
2018-02-20T03:28:56.340Z,65.87
2018-02-20T03:31:24.828Z,68.95
2018-02-20T03:33:53.422Z,59.10
2018-02-20T03:36:21.842Z,65.90
2018-02-20T03:38:51.124Z,69.72
2018-02-20T03:41:19.495Z,57.15
2018-02-20T03:43:47.799Z,61.20
2018-02-20T03:46:16.437Z,67.53
2018-02-20T03:48:44.706Z,72.78
2018-02-20T03:51:13.007Z,59.63
2018-02-20T03:53:41.347Z,67.97
2018-02-20T03:56:09.674Z,64.20
2018-02-20T03:58:38.187Z,68.60
2018-02-20T04:01:06.846Z,58.50
2018-02-20T04:03:35.310Z,55.08
2018-02-20T04:06:03.755Z,67.62
2018-02-20T04:08:33.623Z,59.58
2018-02-20T04:11:02.256Z,56.58
2018-02-20T04:13:32.699Z,58.30
2018-02-20T04:16:02.612Z,64.97
2018-02-20T04:18:31.962Z,68.00
2018-02-20T04:21:00.598Z,70.03
2018-02-20T04:23:28.998Z,53.80
2018-02-20T04:25:57.458Z,65.10
2018-02-20T04:28:25.796Z,52.38
2018-02-20T04:30:54.127Z,62.83
2018-02-20T04:33:23.932Z,60.50
2018-02-20T04:35:52.486Z,57.42
2018-02-20T04:38:21.658Z,53.87
2018-02-20T04:40:50.183Z,62.92
2018-02-20T04:43:18.555Z,55.12
2018-02-20T04:45:46.894Z,69.72
2018-02-20T04:48:15.242Z,59.20
2018-02-20T04:50:43.546Z,56.80
2018-02-20T04:53:11.910Z,71.35
2018-02-20T04:55:40.218Z,64.10
2018-02-20T04:58:08.614Z,66.75
2018-02-20T05:00:37.011Z,63.17
2018-02-20T05:03:06.049Z,67.97
2018-02-20T05:05:34.734Z,65.12
2018-02-20T05:08:03.203Z,55.67
2018-02-20T05:10:31.849Z,73.68
2018-02-20T05:13:02.011Z,64.70
2018-02-20T05:15:31.025Z,60.50
2018-02-20T05:18:00.478Z,69.30
2018-02-20T05:20:28.876Z,62.42
2018-02-20T05:22:57.234Z,66.60
2018-02-20T05:25:25.534Z,75.70
2018-02-20T05:27:53.875Z,58.87
2018-02-20T05:30:22.190Z,70.95
2018-02-20T05:32:51.589Z,68.10
2018-02-20T05:35:19.986Z,62.47
2018-02-20T05:37:49.319Z,63.80
2018-02-20T05:40:17.908Z,73.03
2018-02-20T05:42:46.233Z,64.15
2018-02-20T05:45:14.535Z,71.65
2018-02-20T05:47:42.865Z,63.63
2018-02-20T05:50:11.931Z,71.78
2018-02-20T05:52:40.267Z,72.00
2018-02-20T05:55:09.475Z,56.30
2018-02-20T05:57:37.778Z,75.15
2018-02-20T06:00:06.207Z,73.57
2018-02-20T06:02:35.694Z,73.90
2018-02-20T06:05:04.296Z,59.58
2018-02-20T06:07:32.823Z,57.67
2018-02-20T06:10:01.743Z,77.45
2018-02-20T06:12:30.158Z,73.43
2018-02-20T06:14:58.482Z,81.47
2018-02-20T06:17:27.171Z,67.60
2018-02-20T06:19:55.467Z,68.03
2018-02-20T06:22:23.979Z,70.47
2018-02-20T06:24:52.348Z,71.75
2018-02-20T06:27:20.976Z,74.82
2018-02-20T06:29:50.807Z,71.60
2018-02-20T06:32:19.222Z,64.28
2018-02-20T06:34:47.655Z,64.57
2018-02-20T06:37:16.323Z,72.15
2018-02-20T06:39:44.650Z,77.95
2018-02-20T06:42:12.954Z,56.90
2018-02-20T06:44:41.278Z,68.28
2018-02-20T06:47:10.342Z,74.30
2018-02-20T06:49:38.677Z,64.25
2018-02-20T06:52:07.377Z,65.65
2018-02-20T06:54:35.983Z,65.55
2018-02-20T06:57:05.562Z,74.05
2018-02-20T06:59:34.691Z,63.03
2018-02-20T07:02:03.957Z,47.58
2018-02-20T07:04:32.662Z,67.15
2018-02-20T07:07:02.024Z,69.15
2018-02-20T07:09:30.507Z,54.05
2018-02-20T07:11:58.999Z,56.97
2018-02-20T07:14:27.370Z,54.78
2018-02-20T07:16:55.690Z,62.47
2018-02-20T07:19:24.034Z,64.45
2018-02-20T07:21:52.526Z,68.93
2018-02-20T07:24:20.974Z,45.40
2018-02-20T07:26:49.347Z,55.63
2018-02-20T07:29:17.686Z,49.67
2018-02-20T07:31:46.775Z,61.55
2018-02-20T07:34:15.210Z,66.40
2018-02-20T07:36:44.274Z,54.40
2018-02-20T07:39:12.570Z,56.78
2018-02-20T07:41:40.902Z,59.10
2018-02-20T07:44:09.243Z,67.15
2018-02-20T07:46:38.491Z,62.42
2018-02-20T07:49:06.913Z,68.12
2018-02-20T07:51:35.583Z,60.42
2018-02-20T07:54:04.138Z,60.33
2018-02-20T07:56:32.801Z,49.92
2018-02-20T07:59:01.399Z,54.45
2018-02-20T08:01:29.907Z,51.20
2018-02-20T08:03:58.795Z,51.40
2018-02-20T08:06:27.879Z,53.45
2018-02-20T08:08:56.361Z,62.03
2018-02-20T08:11:24.758Z,43.50
2018-02-20T08:13:53.986Z,51.67
2018-02-20T08:16:22.531Z,56.00
2018-02-20T08:18:51.294Z,51.30
2018-02-20T08:21:19.711Z,55.28
2018-02-20T08:23:48.049Z,57.38
2018-02-20T08:26:16.410Z,48.92
2018-02-20T08:28:45.540Z,40.78
2018-02-20T08:31:13.878Z,60.45
2018-02-20T08:33:42.208Z,59.65
2018-02-20T08:36:10.586Z,52.38
2018-02-20T08:38:39.679Z,59.42
2018-02-20T08:41:08.023Z,51.85
2018-02-20T08:43:36.617Z,56.00
2018-02-20T08:46:05.199Z,54.25
2018-02-20T08:48:33.639Z,53.80
2018-02-20T08:51:02.239Z,59.22
2018-02-20T08:53:31.178Z,57.05
2018-02-20T08:55:59.646Z,53.03
2018-02-20T08:58:27.949Z,57.65
2018-02-20T09:00:56.335Z,51.65
2018-02-20T09:03:25.632Z,53.95
2018-02-20T09:05:54.827Z,59.20
2018-02-20T09:08:23.118Z,44.22
2018-02-20T09:10:51.422Z,55.12
2018-02-20T09:13:19.986Z,55.03
2018-02-20T09:15:48.542Z,58.35
2018-02-20T09:18:16.871Z,53.80
2018-02-20T09:20:45.194Z,59.35
2018-02-20T09:23:14.574Z,55.10
2018-02-20T09:25:42.866Z,57.15
2018-02-20T09:28:11.155Z,43.05
2018-02-20T09:30:39.791Z,54.67
2018-02-20T09:33:08.079Z,42.95
2018-02-20T09:35:36.377Z,54.70
2018-02-20T09:38:04.787Z,49.60
2018-02-20T09:40:33.218Z,49.95
2018-02-20T09:43:01.522Z,36.38
2018-02-20T09:45:29.847Z,40.38
2018-02-20T09:47:58.192Z,49.22
2018-02-20T09:50:26.503Z,47.03
2018-02-20T09:52:54.867Z,43.58
2018-02-20T09:55:23.219Z,42.97
2018-02-20T09:57:51.927Z,23.98
2018-02-20T10:00:20.222Z,43.63
2018-02-20T10:02:48.520Z,40.10
2018-02-20T10:05:16.859Z,41.25
2018-02-20T10:07:45.940Z,39.80
2018-02-20T10:10:14.299Z,41.03
2018-02-20T10:12:43.354Z,38.55
2018-02-20T10:15:11.643Z,41.58
2018-02-20T10:17:39.980Z,43.03
2018-02-20T10:20:08.316Z,45.17
2018-02-20T10:22:37.374Z,41.72
2018-02-20T10:25:05.739Z,46.00
2018-02-20T10:27:34.807Z,39.22
2018-02-20T10:30:03.150Z,39.70
2018-02-20T10:32:31.484Z,45.30
2018-02-20T10:34:59.879Z,41.88
2018-02-20T10:37:28.264Z,39.40
2018-02-20T10:39:56.663Z,42.95
2018-02-20T10:42:25.019Z,39.87
2018-02-20T10:44:53.331Z,36.90
2018-02-20T10:47:21.656Z,43.55
2018-02-20T10:49:50.022Z,44.92
2018-02-20T10:52:18.365Z,33.03
2018-02-20T10:54:46.879Z,40.88
2018-02-20T10:57:15.997Z,52.10
2018-02-20T10:59:44.406Z,36.65
2018-02-20T11:02:13.838Z,25.65
2018-02-20T11:04:42.158Z,36.05
2018-02-20T11:07:11.242Z,33.13
2018-02-20T11:09:39.669Z,37.97
2018-02-20T11:12:07.986Z,38.88
2018-02-20T11:14:37.072Z,39.33
2018-02-20T11:17:05.462Z,35.37
2018-02-20T11:19:34.101Z,39.22
2018-02-20T11:22:02.931Z,44.22
2018-02-20T11:24:31.513Z,31.60
2018-02-20T11:27:00.524Z,37.05
2018-02-20T11:29:28.898Z,32.17
2018-02-20T11:31:57.275Z,32.20
2018-02-20T11:34:26.383Z,33.43
2018-02-20T11:36:55.499Z,35.03
2018-02-20T11:39:24.617Z,40.70
2018-02-20T11:41:52.970Z,28.43
2018-02-20T11:44:21.326Z,37.53
2018-02-20T11:46:50.411Z,34.90
2018-02-20T11:49:18.882Z,39.03
2018-02-20T11:51:47.290Z,27.30
2018-02-20T11:54:15.686Z,34.80
2018-02-20T11:56:44.028Z,39.37
2018-02-20T11:59:12.381Z,30.80
2018-02-20T12:01:41.459Z,32.80
2018-02-20T12:04:09.770Z,30.27
2018-02-20T12:06:39.213Z,34.80
2018-02-20T12:09:08.306Z,31.50
2018-02-20T12:11:36.898Z,31.70
2018-02-20T12:14:05.276Z,34.57
2018-02-20T12:16:33.708Z,37.87
2018-02-20T12:19:02.177Z,34.67
2018-02-20T12:21:30.815Z,28.57
2018-02-20T12:24:00.158Z,26.73
2018-02-20T12:26:28.553Z,24.97
2018-02-20T12:28:56.914Z,32.90
2018-02-20T12:31:26.026Z,32.57
2018-02-20T12:33:55.109Z,26.87
2018-02-20T12:36:23.455Z,26.93
2018-02-20T12:38:52.544Z,23.30
2018-02-20T12:41:20.888Z,26.30
2018-02-20T12:43:49.344Z,26.00
2018-02-20T12:46:18.519Z,27.27
2018-02-20T12:48:46.890Z,28.67
2018-02-20T12:51:15.250Z,35.47
2018-02-20T12:53:43.578Z,24.27
2018-02-20T12:56:11.906Z,23.70
2018-02-20T12:58:40.254Z,16.50
2018-02-20T13:01:08.570Z,16.62
2018-02-20T13:03:36.886Z,22.50
2018-02-20T13:06:05.258Z,18.70
2018-02-20T13:08:33.795Z,22.40
2018-02-20T13:11:02.200Z,18.90
2018-02-20T13:13:30.682Z,19.27
2018-02-20T13:15:59.191Z,22.40
2018-02-20T13:18:27.553Z,18.70
2018-02-20T13:20:55.907Z,16.70
2018-02-20T13:23:24.219Z,19.67
2018-02-20T13:25:52.558Z,22.73
2018-02-20T13:28:21.739Z,17.87
2018-02-20T13:30:50.443Z,22.83
2018-02-20T13:33:19.786Z,19.50
2018-02-20T13:35:48.258Z,12.20
2018-02-20T13:38:16.626Z,16.50
2018-02-20T13:40:44.963Z,21.43
2018-02-20T13:43:13.343Z,16.00
2018-02-20T13:45:42.446Z,16.40
2018-02-20T13:48:10.754Z,17.73
2018-02-20T13:50:39.870Z,16.20
2018-02-20T13:53:08.987Z,18.50
2018-02-20T13:55:38.076Z,16.87
2018-02-20T13:58:06.388Z,20.13
2018-02-20T14:00:34.758Z,12.23
2018-02-20T14:03:03.094Z,19.83
2018-02-20T14:05:31.594Z,15.20
2018-02-20T14:08:00.097Z,14.35
2018-02-20T14:10:28.911Z,14.17
2018-02-20T14:12:57.271Z,19.33
2018-02-20T14:15:26.339Z,14.50
2018-02-20T14:17:54.680Z,18.23
2018-02-20T14:20:23.772Z,18.10
2018-02-20T14:22:52.114Z,16.00
2018-02-20T14:25:20.506Z,17.70
2018-02-20T14:27:49.682Z,18.17
2018-02-20T14:30:18.175Z,17.23
2018-02-20T14:32:46.486Z,15.27
2018-02-20T14:35:14.830Z,22.92
2018-02-20T14:37:43.175Z,14.33
2018-02-20T14:40:11.529Z,17.50
2018-02-20T14:42:39.838Z,16.73
2018-02-20T14:45:08.173Z,14.70
2018-02-20T14:47:36.984Z,21.43
2018-02-20T14:50:05.524Z,19.77
2018-02-20T14:52:34.384Z,16.03
2018-02-20T14:55:03.977Z,20.87
2018-02-20T14:57:32.631Z,20.00
2018-02-20T15:00:01.147Z,11.00
2018-02-20T15:02:29.582Z,20.50
2018-02-20T15:04:59.019Z,18.08
2018-02-20T15:07:28.162Z,13.63
2018-02-20T15:09:56.542Z,21.62
2018-02-20T15:12:24.908Z,16.60
2018-02-20T15:14:53.378Z,18.93
2018-02-20T15:17:21.814Z,21.33
2018-02-20T15:19:50.251Z,15.20
2018-02-20T15:22:18.651Z,23.30
2018-02-20T15:24:47.066Z,19.50
2018-02-20T15:27:15.383Z,18.85
2018-02-20T15:29:43.694Z,15.10
2018-02-20T15:32:12.038Z,14.93
2018-02-20T15:34:40.370Z,17.65
2018-02-20T15:37:09.020Z,14.93
2018-02-20T15:39:37.595Z,21.23
2018-02-20T15:42:06.000Z,14.07
2018-02-20T15:44:34.831Z,16.85
2018-02-20T15:47:03.338Z,11.60
2018-02-20T15:49:32.749Z,16.80
2018-02-20T15:52:01.299Z,12.18
2018-02-20T15:54:30.141Z,14.25
2018-02-20T15:56:58.814Z,15.50
2018-02-20T15:59:27.354Z,16.10
2018-02-20T16:01:55.831Z,15.02
2018-02-20T16:04:24.949Z,16.52
2018-02-20T16:06:53.262Z,17.70
2018-02-20T16:09:22.602Z,14.70
2018-02-20T16:11:52.071Z,16.30
2018-02-20T16:14:21.374Z,16.93
2018-02-20T16:16:49.858Z,15.77
2018-02-20T16:19:18.338Z,17.75
2018-02-20T16:21:46.678Z,15.10
2018-02-20T16:24:15.742Z,15.20
2018-02-20T16:26:44.082Z,14.23
2018-02-20T16:29:13.166Z,22.27
2018-02-20T16:31:41.514Z,15.20
2018-02-20T16:34:09.863Z,22.40
2018-02-20T16:36:38.217Z,19.30
2018-02-20T16:39:07.359Z,20.43
2018-02-20T16:41:35.778Z,16.80
2018-02-20T16:44:05.220Z,17.97
2018-02-20T16:46:33.714Z,17.53
2018-02-20T16:49:02.184Z,16.13
2018-02-20T16:51:31.921Z,17.77
2018-02-20T16:54:00.695Z,16.23
2018-02-20T16:56:29.192Z,21.53
2018-02-20T16:58:57.518Z,17.47
2018-02-20T17:01:25.871Z,20.35
2018-02-20T17:03:54.182Z,16.33
2018-02-20T17:06:22.591Z,25.02
2018-02-20T17:08:50.954Z,22.55
2018-02-20T17:11:19.338Z,22.30
2018-02-20T17:13:48.423Z,19.60
2018-02-20T17:16:16.855Z,22.00
2018-02-20T17:18:46.205Z,25.85
2018-02-20T17:21:15.406Z,28.02
2018-02-20T17:23:44.670Z,26.90
2018-02-20T17:26:13.050Z,26.80
2018-02-20T17:28:42.186Z,27.40
2018-02-20T17:31:10.541Z,29.50
2018-02-20T17:33:38.870Z,28.00
2018-02-20T17:36:08.117Z,33.65
2018-02-20T17:38:36.766Z,29.40
2018-02-20T17:41:05.098Z,28.65
2018-02-20T17:43:35.157Z,29.60
2018-02-20T17:46:03.729Z,30.20
2018-02-20T17:48:32.959Z,35.00
2018-02-20T17:51:02.383Z,35.45
2018-02-20T17:53:31.719Z,35.05
2018-02-20T17:56:00.631Z,30.88
2018-02-20T17:58:29.179Z,27.27
2018-02-20T18:00:57.583Z,27.23
2018-02-20T18:03:25.940Z,24.12
2018-02-20T18:05:54.250Z,24.55
2018-02-20T18:08:23.401Z,26.77
2018-02-20T18:10:51.942Z,29.10
2018-02-20T18:13:20.764Z,29.08
2018-02-20T18:15:50.320Z,33.88
2018-02-20T18:18:18.687Z,28.87
2018-02-20T18:20:47.039Z,27.55
2018-02-20T18:23:15.386Z,26.80
2018-02-20T18:25:43.705Z,22.92
2018-02-20T18:28:12.066Z,29.42
2018-02-20T18:30:41.173Z,29.65
2018-02-20T18:33:10.258Z,29.20
2018-02-20T18:35:38.886Z,27.05
2018-02-20T18:38:07.203Z,28.98
2018-02-20T18:40:36.446Z,26.75
2018-02-20T18:43:05.712Z,27.98
2018-02-20T18:45:34.927Z,27.27
2018-02-20T18:48:03.410Z,27.25
2018-02-20T18:50:32.182Z,32.80
2018-02-20T18:53:00.746Z,36.63
2018-02-20T18:55:29.158Z,27.70
2018-02-20T18:57:58.475Z,31.02
2018-02-20T19:00:26.833Z,28.02
2018-02-20T19:02:55.911Z,33.20
2018-02-20T19:05:24.561Z,30.88
2018-02-20T19:07:53.047Z,33.75
2018-02-20T19:10:21.358Z,33.75
2018-02-20T19:12:49.733Z,36.13
2018-02-20T19:15:18.901Z,33.78
2018-02-20T19:17:47.601Z,33.22
2018-02-20T19:20:15.914Z,32.10
2018-02-20T19:22:44.994Z,50.58
2018-02-20T19:25:13.644Z,42.03
2018-02-20T19:27:42.727Z,32.67
2018-02-20T19:30:11.044Z,37.50
2018-02-20T19:32:39.406Z,43.58
2018-02-20T19:35:07.747Z,39.17
2018-02-20T19:37:37.875Z,42.67
2018-02-20T19:40:07.226Z,35.53
2018-02-20T19:42:35.627Z,29.77
2018-02-20T19:45:04.818Z,30.80
2018-02-20T19:47:33.330Z,37.53
2018-02-20T19:50:02.254Z,33.92
2018-02-20T19:52:30.799Z,32.70
2018-02-20T19:54:59.779Z,33.63
2018-02-20T19:57:28.300Z,32.67
2018-02-20T19:59:57.402Z,34.08
2018-02-20T20:02:25.746Z,39.47
2018-02-20T20:04:54.823Z,35.90
2018-02-20T20:07:23.194Z,34.60
2018-02-20T20:09:51.847Z,33.22
2018-02-20T20:12:20.293Z,32.75
2018-02-20T20:14:48.710Z,40.28
2018-02-20T20:17:17.898Z,38.78
2018-02-20T20:19:47.117Z,33.10
2018-02-20T20:22:15.541Z,36.47
2018-02-20T20:24:43.927Z,37.15
2018-02-20T20:27:12.295Z,44.65
2018-02-20T20:29:40.612Z,35.30
2018-02-20T20:32:10.312Z,35.45
2018-02-20T20:34:38.646Z,32.72
2018-02-20T20:37:07.486Z,32.65
2018-02-20T20:39:36.347Z,36.05
2018-02-20T20:42:05.071Z,36.92
2018-02-20T20:44:33.936Z,38.80
2018-02-20T20:47:02.659Z,45.00
2018-02-20T20:49:31.460Z,36.00
2018-02-20T20:52:00.036Z,34.65
2018-02-20T20:54:28.627Z,33.97
2018-02-20T20:56:57.254Z,41.97
2018-02-20T20:59:25.585Z,31.10
2018-02-20T21:01:54.123Z,32.85
2018-02-20T21:04:23.229Z,30.92
2018-02-20T21:06:51.678Z,36.85
2018-02-20T21:09:20.022Z,27.87
2018-02-20T21:11:48.404Z,28.60
2018-02-20T21:14:16.764Z,40.50
2018-02-20T21:16:45.855Z,29.63
2018-02-20T21:19:14.674Z,33.53
2018-02-20T21:21:42.999Z,29.40
2018-02-20T21:24:12.087Z,32.72
2018-02-20T21:26:41.165Z,29.25
2018-02-20T21:29:10.848Z,33.30
2018-02-20T21:31:39.198Z,36.20
2018-02-20T21:34:07.797Z,26.42
2018-02-20T21:36:36.204Z,36.08
2018-02-20T21:39:04.742Z,32.22
2018-02-20T21:41:33.302Z,35.13
2018-02-20T21:44:02.724Z,35.95
2018-02-20T21:46:31.144Z,32.60
2018-02-20T21:48:59.554Z,36.38
2018-02-20T21:51:28.050Z,37.88
2018-02-20T21:53:56.739Z,38.40
2018-02-20T21:56:25.142Z,34.13
2018-02-20T21:58:55.439Z,37.08
2018-02-20T22:01:23.880Z,38.15
2018-02-20T22:03:52.211Z,32.67
2018-02-20T22:06:21.590Z,39.55
2018-02-20T22:08:50.251Z,39.72
2018-02-20T22:11:18.580Z,28.85
2018-02-20T22:13:46.938Z,36.38
2018-02-20T22:16:16.050Z,38.28
2018-02-20T22:18:44.407Z,41.00
2018-02-20T22:21:12.970Z,36.90
2018-02-20T22:23:41.303Z,34.35
2018-02-20T22:26:09.618Z,38.50
2018-02-20T22:28:38.153Z,33.03
2018-02-20T22:31:06.882Z,36.33
2018-02-20T22:33:36.218Z,32.20
2018-02-20T22:36:05.601Z,38.63
2018-02-20T22:38:34.507Z,36.85
2018-02-20T22:41:03.016Z,33.95
2018-02-20T22:43:32.093Z,39.08
2018-02-20T22:46:01.644Z,32.03
2018-02-20T22:48:30.610Z,35.88
2018-02-20T22:51:00.094Z,46.58
2018-02-20T22:53:29.394Z,39.47
2018-02-20T22:55:57.902Z,31.42
2018-02-20T22:58:26.306Z,41.63
2018-02-20T23:00:54.634Z,37.20
2018-02-20T23:03:23.106Z,33.92
2018-02-20T23:05:51.618Z,32.28
2018-02-20T23:08:20.392Z,34.53
2018-02-20T23:10:48.829Z,28.92
2018-02-20T23:13:17.147Z,33.35
2018-02-20T23:15:46.258Z,33.55
2018-02-20T23:18:14.578Z,27.65
2018-02-20T23:20:43.706Z,27.50
2018-02-20T23:23:12.786Z,39.08
2018-02-20T23:25:41.098Z,31.23
2018-02-20T23:28:09.445Z,29.37
2018-02-20T23:30:37.984Z,33.72
2018-02-20T23:33:06.436Z,36.58
2018-02-20T23:35:35.279Z,32.08
2018-02-20T23:38:04.251Z,33.63
2018-02-20T23:40:33.570Z,34.22
2018-02-20T23:43:02.227Z,29.60
2018-02-20T23:45:31.791Z,30.85
2018-02-20T23:48:01.234Z,30.88
2018-02-20T23:50:29.733Z,27.67
2018-02-20T23:52:58.178Z,37.08
2018-02-20T23:55:27.315Z,34.20
2018-02-20T23:57:55.638Z,31.12
